createdAt,value
2023-03-17T00:00:54.131Z,74.42
2023-03-17T00:03:29.416Z,74.20
2023-03-17T00:06:01.910Z,74.48
2023-03-17T00:08:34.188Z,74.83
2023-03-17T00:11:04.451Z,74.19
2023-03-17T00:13:35.387Z,74.34
2023-03-17T00:16:09.020Z,74.69
2023-03-17T00:18:39.064Z,74.14
2023-03-17T00:21:12.770Z,74.63
2023-03-17T00:23:42.196Z,74.28
2023-03-17T00:26:13.154Z,73.95
2023-03-17T00:28:44.785Z,74.24
2023-03-17T00:31:17.034Z,73.60
2023-03-17T00:33:48.790Z,73.75
2023-03-17T00:36:22.737Z,73.62
2023-03-17T00:38:52.816Z,73.69
2023-03-17T00:41:22.614Z,73.76
2023-03-17T00:43:52.811Z,73.33
2023-03-17T00:46:28.050Z,73.84
2023-03-17T00:48:57.989Z,73.91
2023-03-17T00:51:27.154Z,74.37
2023-03-17T00:53:57.085Z,74.18
2023-03-17T00:56:26.186Z,73.95
2023-03-17T00:58:56.772Z,73.57
2023-03-17T01:01:25.876Z,73.92
2023-03-17T01:03:54.700Z,73.97
2023-03-17T01:06:23.965Z,74.35
2023-03-17T01:08:53.635Z,74.04
2023-03-17T01:11:22.790Z,73.57
2023-03-17T01:13:51.593Z,73.83
2023-03-17T01:16:22.678Z,73.63
2023-03-17T01:18:51.593Z,73.58
2023-03-17T01:21:20.747Z,73.93
2023-03-17T01:23:49.556Z,73.80
2023-03-17T01:26:19.163Z,73.93
2023-03-17T01:28:48.148Z,73.85
2023-03-17T01:31:17.383Z,73.96
2023-03-17T01:33:47.539Z,74.58
2023-03-17T01:36:17.846Z,74.43
2023-03-17T01:38:48.137Z,75.03
2023-03-17T01:41:17.821Z,74.65
2023-03-17T01:43:46.762Z,74.88
2023-03-17T01:46:27.759Z,74.92
2023-03-17T01:49:11.288Z,74.56
2023-03-17T01:51:51.442Z,74.10
2023-03-17T01:54:28.273Z,74.25
2023-03-17T01:57:04.981Z,74.24
2023-03-17T01:59:43.681Z,73.86
2023-03-17T02:02:18.288Z,73.64
2023-03-17T02:04:48.565Z,73.53
2023-03-17T02:07:18.693Z,73.50
2023-03-17T02:09:47.611Z,73.58
2023-03-17T02:12:16.801Z,73.69
2023-03-17T02:14:46.776Z,73.97
2023-03-17T02:17:16.230Z,73.78
2023-03-17T02:19:44.953Z,74.55
2023-03-17T02:22:17.952Z,73.93
2023-03-17T02:24:52.297Z,73.96
2023-03-17T02:27:27.789Z,74.49
2023-03-17T02:29:56.889Z,74.36
2023-03-17T02:32:26.083Z,74.57
2023-03-17T02:34:57.433Z,74.60
2023-03-17T02:37:28.365Z,74.83
2023-03-17T02:39:57.835Z,75.16
2023-03-17T02:42:27.047Z,74.54
2023-03-17T02:44:56.076Z,74.53
2023-03-17T02:47:25.495Z,74.75
2023-03-17T02:49:55.256Z,74.84
2023-03-17T02:52:24.393Z,74.82
2023-03-17T02:54:54.543Z,75.13
2023-03-17T02:57:23.635Z,75.17
2023-03-17T02:59:52.433Z,74.59
2023-03-17T03:02:21.586Z,74.63
2023-03-17T03:04:50.733Z,74.43
2023-03-17T03:07:19.807Z,74.56
2023-03-17T03:09:48.735Z,74.69
2023-03-17T03:12:19.125Z,74.47
2023-03-17T03:14:47.929Z,74.54
2023-03-17T03:17:17.057Z,74.77
2023-03-17T03:19:46.064Z,74.48
2023-03-17T03:22:15.533Z,74.36
2023-03-17T03:24:44.414Z,74.37
2023-03-17T03:27:13.544Z,73.98
2023-03-17T03:29:43.793Z,74.24
2023-03-17T03:32:13.098Z,74.71
2023-03-17T03:34:41.848Z,74.40
2023-03-17T03:37:11.200Z,73.70
2023-03-17T03:39:40.172Z,73.56
2023-03-17T03:42:09.611Z,74.25
2023-03-17T03:44:38.605Z,73.83
2023-03-17T03:47:09.523Z,73.98
2023-03-17T03:49:38.394Z,73.66
2023-03-17T03:52:08.009Z,74.08
2023-03-17T03:54:36.871Z,73.96
2023-03-17T03:57:06.625Z,74.11
2023-03-17T03:59:35.394Z,73.74
2023-03-17T04:02:04.790Z,73.59
2023-03-17T04:04:35.240Z,73.44
2023-03-17T04:07:04.431Z,73.70
2023-03-17T04:09:33.197Z,74.32
2023-03-17T04:12:02.256Z,74.29
2023-03-17T04:14:31.125Z,74.13
2023-03-17T04:17:00.166Z,74.40
2023-03-17T04:19:29.078Z,74.82
2023-03-17T04:21:59.599Z,75.21
2023-03-17T04:24:29.473Z,75.38
2023-03-17T04:26:58.760Z,75.15
2023-03-17T04:29:27.492Z,74.92
2023-03-17T04:31:57.140Z,74.96
2023-03-17T04:34:26.666Z,74.67
2023-03-17T04:36:56.243Z,74.78
2023-03-17T04:39:27.531Z,75.42
2023-03-17T04:41:56.610Z,75.03
2023-03-17T04:44:25.421Z,75.11
2023-03-17T04:46:54.493Z,75.19
2023-03-17T04:49:23.371Z,74.99
2023-03-17T04:51:52.414Z,74.61
2023-03-17T04:54:21.752Z,74.71
2023-03-17T04:56:52.502Z,74.88
2023-03-17T04:59:21.878Z,75.18
2023-03-17T05:01:50.964Z,75.11
2023-03-17T05:04:31.247Z,75.62
2023-03-17T05:07:02.951Z,76.30
2023-03-17T05:09:32.500Z,76.21
2023-03-17T05:12:02.930Z,76.14
2023-03-17T05:14:31.814Z,76.88
2023-03-17T05:17:00.994Z,76.49
2023-03-17T05:19:29.779Z,76.49
2023-03-17T05:21:58.968Z,76.30
2023-03-17T05:24:27.908Z,76.65
2023-03-17T05:26:57.016Z,76.59
2023-03-17T05:29:27.566Z,76.33
2023-03-17T05:31:56.654Z,76.16
2023-03-17T05:34:25.884Z,76.12
2023-03-17T05:36:54.928Z,76.17
2023-03-17T05:39:23.820Z,76.38
2023-03-17T05:41:53.345Z,76.75
2023-03-17T05:44:22.172Z,76.76
2023-03-17T05:46:52.649Z,76.87
2023-03-17T05:49:21.446Z,76.48
2023-03-17T05:51:50.686Z,76.60
2023-03-17T05:54:19.799Z,76.35
2023-03-17T05:56:49.621Z,76.44
2023-03-17T05:59:18.610Z,76.59
2023-03-17T06:01:47.697Z,76.50
2023-03-17T06:04:17.851Z,76.06
2023-03-17T06:06:46.953Z,75.99
2023-03-17T06:09:15.961Z,76.29
2023-03-17T06:11:45.181Z,76.29
2023-03-17T06:14:14.671Z,76.45
2023-03-17T06:16:43.787Z,76.25
2023-03-17T06:19:12.555Z,76.29
2023-03-17T06:21:42.982Z,75.71
2023-03-17T06:24:12.564Z,75.46
2023-03-17T06:26:42.511Z,75.61
2023-03-17T06:29:12.606Z,75.23
2023-03-17T06:31:42.259Z,75.41
2023-03-17T06:34:12.068Z,75.34
2023-03-17T06:36:43.564Z,75.70
2023-03-17T06:39:12.960Z,74.74
2023-03-17T06:41:42.039Z,74.56
2023-03-17T06:44:11.120Z,74.25
2023-03-17T06:46:40.876Z,73.80
2023-03-17T06:49:13.452Z,73.35
2023-03-17T06:51:43.989Z,73.05
2023-03-17T06:54:12.773Z,72.76
2023-03-17T06:56:42.513Z,72.15
2023-03-17T06:59:11.585Z,71.71
2023-03-17T07:01:41.058Z,71.37
2023-03-17T07:04:09.987Z,69.40
2023-03-17T07:06:39.166Z,69.37
2023-03-17T07:09:10.145Z,70.00
2023-03-17T07:11:39.471Z,69.05
2023-03-17T07:14:09.108Z,68.96
2023-03-17T07:16:38.846Z,68.35
2023-03-17T07:19:08.344Z,67.39
2023-03-17T07:21:37.462Z,66.85
2023-03-17T07:24:08.062Z,66.56
2023-03-17T07:26:37.275Z,65.17
2023-03-17T07:29:06.514Z,64.94
2023-03-17T07:31:38.807Z,64.59
2023-03-17T07:34:07.751Z,63.88
2023-03-17T07:36:37.577Z,62.93
2023-03-17T07:39:10.161Z,62.25
2023-03-17T07:41:41.441Z,62.63
2023-03-17T07:44:12.599Z,61.75
2023-03-17T07:46:41.849Z,61.16
2023-03-17T07:49:10.695Z,61.02
2023-03-17T07:51:43.094Z,59.79
2023-03-17T07:54:15.922Z,59.97
2023-03-17T07:56:45.163Z,59.20
2023-03-17T07:59:14.082Z,57.78
2023-03-17T08:01:43.215Z,56.84
2023-03-17T08:04:13.273Z,56.41
2023-03-17T08:06:43.017Z,55.99
2023-03-17T08:09:14.145Z,55.07
2023-03-17T08:11:43.306Z,55.00
2023-03-17T08:14:12.125Z,54.23
2023-03-17T08:16:41.398Z,53.94
2023-03-17T08:19:10.923Z,54.19
2023-03-17T08:21:40.050Z,52.75
2023-03-17T08:24:09.911Z,52.04
2023-03-17T08:26:40.597Z,51.65
2023-03-17T08:29:09.697Z,50.21
2023-03-17T08:31:40.520Z,49.31
2023-03-17T08:34:10.053Z,49.58
2023-03-17T08:36:39.527Z,48.83
2023-03-17T08:39:10.550Z,46.82
2023-03-17T08:41:41.760Z,46.17
2023-03-17T08:44:11.754Z,46.49
2023-03-17T08:46:41.479Z,46.51
2023-03-17T08:49:12.633Z,47.28
2023-03-17T08:51:42.023Z,47.13
2023-03-17T08:54:11.010Z,45.61
2023-03-17T08:56:42.135Z,45.26
2023-03-17T08:59:11.594Z,45.81
2023-03-17T09:01:42.093Z,45.88
2023-03-17T09:04:11.142Z,44.67
2023-03-17T09:06:48.924Z,43.27
2023-03-17T09:09:24.798Z,43.39
2023-03-17T09:11:55.662Z,43.02
2023-03-17T09:14:24.994Z,42.59
2023-03-17T09:16:54.592Z,42.22
2023-03-17T09:19:23.891Z,40.27
2023-03-17T09:21:53.142Z,39.93
2023-03-17T09:24:22.356Z,40.09
2023-03-17T09:26:51.864Z,40.71
2023-03-17T09:29:22.025Z,39.38
2023-03-17T09:31:51.087Z,39.30
2023-03-17T09:34:19.869Z,38.85
2023-03-17T09:36:49.135Z,39.38
2023-03-17T09:39:18.035Z,38.86
2023-03-17T09:42:13.442Z,38.07
2023-03-17T09:45:00.804Z,37.45
2023-03-17T09:48:05.007Z,36.87
2023-03-17T09:50:44.736Z,34.96
2023-03-17T09:53:21.480Z,35.00
2023-03-17T09:55:58.745Z,34.29
2023-03-17T09:58:33.811Z,33.85
2023-03-17T10:01:06.106Z,33.35
2023-03-17T10:03:35.488Z,33.40
2023-03-17T10:06:36.456Z,32.54
2023-03-17T10:09:26.694Z,31.22
2023-03-17T10:12:05.891Z,31.12
2023-03-17T10:14:59.625Z,31.51
2023-03-17T10:17:36.739Z,31.57
2023-03-17T10:20:14.138Z,31.62
2023-03-17T10:22:49.148Z,31.98
2023-03-17T10:25:22.045Z,31.16
2023-03-17T10:27:58.256Z,31.19
2023-03-17T10:30:27.654Z,31.16
2023-03-17T10:33:03.280Z,30.88
2023-03-17T10:35:36.194Z,31.34
2023-03-17T10:38:17.754Z,31.36
2023-03-17T10:40:55.678Z,32.14
2023-03-17T10:43:30.913Z,32.25
2023-03-17T10:46:03.898Z,32.24
2023-03-17T10:48:39.920Z,31.27
2023-03-17T10:51:11.151Z,32.19
2023-03-17T10:53:43.834Z,32.29
2023-03-17T10:56:25.988Z,32.57
2023-03-17T10:58:57.020Z,32.97
2023-03-17T11:01:37.341Z,33.43
2023-03-17T11:04:33.644Z,32.90
2023-03-17T11:07:11.160Z,31.68
2023-03-17T11:09:40.149Z,31.95
2023-03-17T11:12:25.613Z,31.26
2023-03-17T11:15:00.776Z,31.08
2023-03-17T11:17:52.385Z,30.29
2023-03-17T11:20:47.954Z,30.65
2023-03-17T11:23:51.129Z,30.27
2023-03-17T11:26:48.133Z,28.92
2023-03-17T11:29:30.257Z,29.34
2023-03-17T11:32:11.981Z,29.18
2023-03-17T11:35:02.434Z,29.04
2023-03-17T11:38:01.147Z,29.41
2023-03-17T11:40:36.083Z,29.50
2023-03-17T11:43:27.980Z,29.57
2023-03-17T11:46:09.127Z,29.84
2023-03-17T11:48:57.596Z,29.37
2023-03-17T11:51:37.606Z,29.76
2023-03-17T11:54:19.275Z,29.38
2023-03-17T11:56:53.111Z,28.75
2023-03-17T11:59:36.209Z,27.78
2023-03-17T12:02:21.829Z,28.55
2023-03-17T12:04:57.327Z,27.88
2023-03-17T12:07:31.557Z,28.85
2023-03-17T12:10:17.388Z,28.61
2023-03-17T12:12:54.536Z,30.20
2023-03-17T12:15:32.602Z,31.68
2023-03-17T12:18:13.303Z,32.63
2023-03-17T12:20:54.472Z,33.85
2023-03-17T12:23:38.197Z,34.08
2023-03-17T12:26:15.127Z,34.35
2023-03-17T12:28:52.355Z,35.17
2023-03-17T12:31:28.114Z,35.45
2023-03-17T12:34:07.932Z,35.50
2023-03-17T12:36:38.159Z,35.01
2023-03-17T12:39:13.289Z,35.20
2023-03-17T12:42:06.857Z,36.28
2023-03-17T12:45:05.742Z,35.60
2023-03-17T12:48:02.256Z,36.01
2023-03-17T12:51:06.725Z,35.55
2023-03-17T12:53:39.054Z,35.85
2023-03-17T12:56:19.215Z,36.17
2023-03-17T12:58:52.761Z,35.21
2023-03-17T13:01:33.153Z,35.35
2023-03-17T13:04:22.082Z,36.32
2023-03-17T13:07:05.356Z,35.83
2023-03-17T13:09:47.326Z,35.91
2023-03-17T13:13:05.755Z,36.83
2023-03-17T13:15:59.403Z,36.42
2023-03-17T13:18:53.769Z,36.48
2023-03-17T13:21:29.172Z,36.42
2023-03-17T13:24:23.150Z,36.93
2023-03-17T13:27:01.744Z,36.85
2023-03-17T13:29:47.331Z,36.50
2023-03-17T13:32:40.038Z,37.07
2023-03-17T13:35:19.886Z,37.32
2023-03-17T13:39:04.928Z,37.63
2023-03-17T13:42:18.637Z,37.00
2023-03-17T13:45:23.335Z,37.05
2023-03-17T13:47:55.563Z,37.54
2023-03-17T13:50:31.944Z,37.41
2023-03-17T13:53:07.645Z,37.21
2023-03-17T13:55:42.818Z,36.93
2023-03-17T13:58:33.257Z,36.15
2023-03-17T14:01:07.848Z,36.20
2023-03-17T14:03:47.520Z,36.34
2023-03-17T14:06:20.544Z,36.17
2023-03-17T14:08:56.079Z,35.67
2023-03-17T14:11:33.059Z,35.90
2023-03-17T14:14:33.686Z,35.47
2023-03-17T14:17:12.147Z,35.94
2023-03-17T14:19:43.427Z,35.33
2023-03-17T14:22:30.129Z,35.32
2023-03-17T14:25:03.862Z,36.55
2023-03-17T14:27:37.684Z,36.60
2023-03-17T14:30:19.286Z,36.00
2023-03-17T14:32:51.840Z,36.58
2023-03-17T14:35:22.380Z,36.62
2023-03-17T14:37:51.389Z,36.73
2023-03-17T14:40:24.713Z,37.06
2023-03-17T14:42:53.734Z,36.55
2023-03-17T14:45:32.861Z,36.99
2023-03-17T14:48:03.610Z,36.70
2023-03-17T14:50:34.970Z,37.13
2023-03-17T14:53:03.906Z,37.79
2023-03-17T14:55:43.280Z,38.22
2023-03-17T14:58:24.598Z,38.14
2023-03-17T15:01:03.683Z,38.31
2023-03-17T15:03:34.340Z,37.87
2023-03-17T15:06:26.563Z,37.08
2023-03-17T15:08:59.475Z,37.23
2023-03-17T15:11:37.760Z,37.74
2023-03-17T15:14:21.494Z,37.93
2023-03-17T15:16:54.169Z,37.99
2023-03-17T15:19:28.922Z,37.78
2023-03-17T15:22:00.595Z,37.61
2023-03-17T15:24:40.855Z,37.77
2023-03-17T15:27:18.639Z,37.97
2023-03-17T15:29:48.300Z,38.00
2023-03-17T15:32:20.525Z,37.34
2023-03-17T15:34:51.021Z,37.63
2023-03-17T15:37:24.723Z,37.33
2023-03-17T15:39:55.777Z,37.47
2023-03-17T15:42:30.545Z,37.97
2023-03-17T15:45:01.263Z,38.15
2023-03-17T15:47:33.907Z,37.41
2023-03-17T15:50:15.543Z,37.87
2023-03-17T15:52:46.994Z,37.93
2023-03-17T15:55:22.744Z,37.98
2023-03-17T15:57:55.921Z,37.92
2023-03-17T16:00:29.882Z,38.61
2023-03-17T16:03:05.415Z,38.15
2023-03-17T16:05:36.841Z,38.46
2023-03-17T16:08:07.738Z,38.89
2023-03-17T16:10:36.508Z,38.96
2023-03-17T16:13:05.646Z,38.93
2023-03-17T16:15:40.930Z,39.17
2023-03-17T16:18:18.237Z,39.28
2023-03-17T16:20:50.922Z,39.77
2023-03-17T16:23:26.313Z,39.85
2023-03-17T16:26:11.790Z,40.07
2023-03-17T16:28:44.775Z,40.20
2023-03-17T16:31:25.090Z,40.04
2023-03-17T16:33:55.608Z,40.28
2023-03-17T16:36:26.627Z,40.30
2023-03-17T16:38:57.291Z,40.63
2023-03-17T16:41:28.407Z,40.87
2023-03-17T16:44:02.272Z,40.91
2023-03-17T16:46:35.927Z,41.41
2023-03-17T16:49:05.943Z,41.83
2023-03-17T16:51:34.907Z,42.06
2023-03-17T16:54:05.615Z,42.38
2023-03-17T16:56:34.770Z,42.88
2023-03-17T16:59:04.164Z,43.18
2023-03-17T17:01:33.152Z,43.14
2023-03-17T17:04:02.299Z,43.55
2023-03-17T17:06:31.109Z,43.88
2023-03-17T17:09:00.258Z,43.64
2023-03-17T17:11:30.700Z,43.72
2023-03-17T17:13:59.935Z,43.86
2023-03-17T17:16:31.885Z,44.13
2023-03-17T17:19:01.823Z,44.11
2023-03-17T17:21:31.155Z,44.40
2023-03-17T17:24:00.451Z,44.27
2023-03-17T17:26:30.614Z,44.69
2023-03-17T17:28:59.754Z,44.72
2023-03-17T17:31:29.810Z,44.60
2023-03-17T17:33:58.974Z,44.67
2023-03-17T17:36:28.268Z,44.24
2023-03-17T17:38:57.469Z,44.60
2023-03-17T17:41:26.357Z,44.65
2023-03-17T17:43:56.948Z,44.78
2023-03-17T17:46:25.843Z,44.63
2023-03-17T17:48:55.009Z,44.47
2023-03-17T17:51:23.792Z,44.80
2023-03-17T17:53:52.881Z,44.68
2023-03-17T17:56:21.895Z,44.59
2023-03-17T17:58:51.453Z,44.56
2023-03-17T18:01:22.763Z,44.67
2023-03-17T18:03:52.100Z,44.86
2023-03-17T18:06:21.076Z,45.11
2023-03-17T18:08:51.313Z,45.19
2023-03-17T18:11:20.309Z,45.06
2023-03-17T18:13:49.441Z,45.38
2023-03-17T18:16:21.296Z,45.63
2023-03-17T18:18:51.025Z,45.76
2023-03-17T18:21:19.898Z,45.63
2023-03-17T18:23:50.030Z,45.84
2023-03-17T18:26:20.287Z,45.91
2023-03-17T18:28:50.856Z,45.91
2023-03-17T18:31:25.206Z,46.31
2023-03-17T18:33:59.472Z,46.77
2023-03-17T18:36:29.064Z,46.62
2023-03-17T18:38:58.517Z,46.88
2023-03-17T18:41:28.519Z,46.35
2023-03-17T18:43:57.757Z,46.88
2023-03-17T18:46:28.069Z,46.95
2023-03-17T18:48:57.152Z,47.10
2023-03-17T18:51:26.350Z,47.18
2023-03-17T18:53:55.723Z,47.42
2023-03-17T18:56:29.062Z,47.25
2023-03-17T18:58:59.191Z,47.61
2023-03-17T19:01:29.544Z,47.50
2023-03-17T19:03:58.646Z,47.73
2023-03-17T19:06:27.483Z,47.54
2023-03-17T19:08:57.516Z,47.84
2023-03-17T19:11:26.343Z,47.80
2023-03-17T19:13:55.531Z,47.81
2023-03-17T19:16:28.953Z,47.66
2023-03-17T19:19:00.445Z,48.11
2023-03-17T19:21:29.924Z,47.94
2023-03-17T19:24:01.461Z,48.01
2023-03-17T19:26:31.721Z,48.07
2023-03-17T19:29:00.986Z,48.22
2023-03-17T19:31:30.145Z,48.06
2023-03-17T19:34:00.599Z,47.82
2023-03-17T19:36:36.546Z,48.17
2023-03-17T19:39:06.520Z,48.25
2023-03-17T19:41:36.055Z,48.31
2023-03-17T19:44:06.840Z,48.52
2023-03-17T19:46:37.361Z,48.48
2023-03-17T19:49:07.938Z,48.53
2023-03-17T19:51:37.136Z,48.49
2023-03-17T19:54:08.114Z,48.16
2023-03-17T19:56:38.483Z,48.76
2023-03-17T19:59:08.970Z,48.79
2023-03-17T20:01:40.240Z,48.79
2023-03-17T20:04:14.089Z,49.02
2023-03-17T20:06:43.057Z,48.93
2023-03-17T20:09:12.199Z,48.70
2023-03-17T20:11:41.753Z,49.06
2023-03-17T20:14:10.899Z,49.01
2023-03-17T20:16:41.438Z,49.31
2023-03-17T20:19:12.036Z,49.39
2023-03-17T20:21:42.084Z,48.98
2023-03-17T20:24:12.944Z,49.17
2023-03-17T20:26:44.664Z,49.49
2023-03-17T20:29:14.521Z,49.43
2023-03-17T20:31:44.023Z,49.72
2023-03-17T20:34:14.522Z,49.85
2023-03-17T20:36:45.224Z,49.34
2023-03-17T20:39:19.753Z,49.98
2023-03-17T20:41:50.074Z,49.75
2023-03-17T20:44:20.376Z,49.79
2023-03-17T20:46:49.326Z,49.73
2023-03-17T20:49:19.841Z,50.10
2023-03-17T20:51:49.015Z,49.84
2023-03-17T20:54:18.150Z,49.99
2023-03-17T20:56:48.801Z,50.05
2023-03-17T20:59:17.956Z,49.99
2023-03-17T21:01:47.716Z,50.06
2023-03-17T21:04:17.736Z,50.13
2023-03-17T21:06:48.565Z,49.80
2023-03-17T21:09:17.762Z,49.74
2023-03-17T21:11:49.217Z,50.04
2023-03-17T21:14:18.462Z,50.03
2023-03-17T21:16:47.369Z,50.08
2023-03-17T21:19:17.515Z,50.05
2023-03-17T21:21:47.705Z,49.84
2023-03-17T21:24:28.437Z,50.18
2023-03-17T21:26:57.336Z,49.91
2023-03-17T21:29:26.931Z,49.98
2023-03-17T21:31:56.913Z,50.26
2023-03-17T21:34:26.776Z,50.19
2023-03-17T21:36:57.278Z,50.35
2023-03-17T21:39:29.633Z,50.22
2023-03-17T21:42:00.906Z,50.03
2023-03-17T21:44:32.408Z,50.29
2023-03-17T21:47:02.602Z,50.33
2023-03-17T21:49:31.959Z,50.14
2023-03-17T21:52:02.293Z,50.28
2023-03-17T21:54:31.631Z,50.24
2023-03-17T21:57:00.413Z,50.20
2023-03-17T21:59:31.850Z,50.12
2023-03-17T22:02:01.132Z,50.03
2023-03-17T22:04:30.514Z,50.22
2023-03-17T22:06:59.926Z,50.07
2023-03-17T22:09:30.429Z,50.26
2023-03-17T22:11:59.888Z,50.26
2023-03-17T22:14:29.000Z,50.34
2023-03-17T22:16:58.277Z,49.94
2023-03-17T22:19:28.656Z,50.24
2023-03-17T22:21:57.679Z,50.18
2023-03-17T22:24:27.168Z,49.89
2023-03-17T22:26:57.413Z,50.04
2023-03-17T22:29:27.422Z,50.38
2023-03-17T22:31:56.263Z,50.09
2023-03-17T22:34:26.256Z,49.87
2023-03-17T22:36:55.280Z,49.99
2023-03-17T22:39:25.566Z,49.61
2023-03-17T22:41:56.078Z,49.71
2023-03-17T22:44:25.401Z,50.09
2023-03-17T22:46:54.283Z,50.27
2023-03-17T22:49:23.766Z,49.69
2023-03-17T22:51:52.877Z,50.31
2023-03-17T22:54:22.006Z,50.11
2023-03-17T22:56:50.967Z,50.41
2023-03-17T22:59:21.518Z,50.05
2023-03-17T23:01:50.428Z,50.05
2023-03-17T23:04:20.056Z,49.97
2023-03-17T23:06:48.895Z,49.75
2023-03-17T23:09:18.757Z,49.99
2023-03-17T23:11:47.815Z,50.13
2023-03-17T23:14:17.032Z,50.03
2023-03-17T23:16:48.202Z,50.18
2023-03-17T23:19:17.459Z,49.56
2023-03-17T23:21:46.774Z,49.98
2023-03-17T23:24:15.967Z,49.63
2023-03-17T23:26:44.846Z,49.97
2023-03-17T23:29:13.958Z,49.97
2023-03-17T23:31:42.964Z,49.95
2023-03-17T23:34:13.413Z,49.62
2023-03-17T23:36:42.325Z,49.35
2023-03-17T23:39:11.468Z,49.77
2023-03-17T23:41:40.277Z,49.50
2023-03-17T23:44:11.638Z,49.67
2023-03-17T23:46:40.535Z,49.66
2023-03-17T23:49:09.596Z,49.80
2023-03-17T23:51:40.865Z,49.69
2023-03-17T23:54:10.634Z,49.56
2023-03-17T23:56:39.582Z,49.64
2023-03-17T23:59:10.797Z,49.87
